Baraboo, Wisconsin
Current Conditions -  °F | °C
As of 7:50 PM on Sunday 21 Dec 2014 (Local Time) from KDLL Reporting Station
Overcast Overcast  
Wind Chill: 24°   Ceiling: 1300
Heat Index: 35°   Visibility: 7mi
Dew Point: 31°   Wind: 22mph
Humidity: 87%   Direction: 170°S
Pressure: 29.91"   Gusts: 28mph
Location:  43.47°N, 89.74°W
Report Text: KDLL 220150Z AUTO 17019G24KT 7SM BKN013 OVC030 02/00 A2991 RMK AO2 T00171003
Loading
Personal Weather Stations






























Interactive Weather Map New forecast layout! Learn more

10-Day Weather Forecast

Advertisements
Track Severe Weather on mobile